createdAt,value
2022-08-04T00:04:54.917Z,7.10
2022-08-04T00:10:04.029Z,6.90
2022-08-04T00:15:16.786Z,6.90
2022-08-04T00:20:25.948Z,7.40
2022-08-04T00:25:33.159Z,7.50
2022-08-04T00:30:42.498Z,6.90
2022-08-04T00:35:51.130Z,7.30
2022-08-04T00:41:20.968Z,7.60
2022-08-04T00:46:51.697Z,8.00
2022-08-04T00:52:32.254Z,7.90
2022-08-04T00:58:11.457Z,8.40
2022-08-04T01:03:27.510Z,8.50
2022-08-04T01:08:56.387Z,8.40
2022-08-04T01:14:25.608Z,8.60
2022-08-04T01:20:04.159Z,9.00
2022-08-04T01:25:42.179Z,8.00
2022-08-04T01:30:53.207Z,8.00
2022-08-04T01:36:05.943Z,8.60
2022-08-04T01:41:16.312Z,8.50
2022-08-04T01:46:27.677Z,9.20
2022-08-04T01:51:40.669Z,9.00
2022-08-04T01:56:50.572Z,9.10
2022-08-04T02:01:57.710Z,8.80
2022-08-04T02:07:17.401Z,10.00
2022-08-04T02:12:32.751Z,8.60
2022-08-04T02:17:53.733Z,9.70
2022-08-04T02:23:03.243Z,9.50
2022-08-04T02:28:20.194Z,9.50
2022-08-04T02:33:32.882Z,9.60
2022-08-04T02:39:00.868Z,9.70
2022-08-04T02:44:11.268Z,9.30
2022-08-04T02:49:19.855Z,8.90
2022-08-04T02:54:31.843Z,9.30
2022-08-04T03:00:05.429Z,9.70
2022-08-04T03:05:18.564Z,9.30
2022-08-04T03:10:44.520Z,9.50
2022-08-04T03:16:34.400Z,9.10
2022-08-04T03:22:14.733Z,9.90
2022-08-04T03:27:44.443Z,10.00
2022-08-04T03:33:38.268Z,10.00
2022-08-04T03:39:15.023Z,10.20
2022-08-04T03:44:54.671Z,10.50
2022-08-04T03:51:10.995Z,9.90
2022-08-04T03:56:52.996Z,11.00
2022-08-04T04:02:39.738Z,10.70
2022-08-04T04:08:20.048Z,10.20
2022-08-04T04:14:11.317Z,10.10
2022-08-04T04:19:33.510Z,10.70
2022-08-04T04:25:19.442Z,11.50
2022-08-04T04:30:38.448Z,13.30
2022-08-04T04:35:59.608Z,11.50
2022-08-04T04:41:26.726Z,11.50
2022-08-04T04:46:44.643Z,12.70
2022-08-04T04:51:59.338Z,11.70
2022-08-04T04:57:14.974Z,11.50
2022-08-04T05:03:11.066Z,12.80
2022-08-04T05:08:55.048Z,12.60
2022-08-04T05:14:35.372Z,12.40
2022-08-04T05:24:47.803Z,13.20
2022-08-04T05:30:02.382Z,11.40
2022-08-04T05:35:13.189Z,11.90
2022-08-04T05:40:21.087Z,11.10
2022-08-04T05:45:29.966Z,12.00
2022-08-04T05:50:47.361Z,12.10
2022-08-04T05:55:58.863Z,11.50
2022-08-04T06:01:09.826Z,11.70
2022-08-04T06:06:19.224Z,12.70
2022-08-04T06:11:28.404Z,10.00
2022-08-04T06:16:40.476Z,9.40
2022-08-04T06:21:49.681Z,9.70
2022-08-04T06:26:58.344Z,11.20
2022-08-04T06:32:29.770Z,10.60
2022-08-04T06:37:44.229Z,9.60
2022-08-04T06:42:52.861Z,9.60
2022-08-04T06:48:01.406Z,8.50
2022-08-04T06:53:08.735Z,8.50
2022-08-04T06:58:16.856Z,8.20
2022-08-04T07:03:24.518Z,8.40
2022-08-04T07:08:32.291Z,7.50
2022-08-04T07:13:44.832Z,7.90
2022-08-04T07:18:52.354Z,8.00
2022-08-04T07:24:06.106Z,8.80
2022-08-04T07:29:14.310Z,6.70
2022-08-04T07:34:22.378Z,7.00
2022-08-04T07:39:47.624Z,7.20
2022-08-04T07:44:55.806Z,6.70
2022-08-04T07:50:02.830Z,6.50
2022-08-04T07:55:10.983Z,7.10
2022-08-04T08:00:19.301Z,7.20
2022-08-04T08:05:26.716Z,6.30
2022-08-04T08:10:34.043Z,7.20
2022-08-04T08:15:41.809Z,6.20
2022-08-04T08:20:49.050Z,6.60
2022-08-04T08:25:56.031Z,6.90
2022-08-04T08:31:02.939Z,7.10
2022-08-04T08:36:23.368Z,7.20
2022-08-04T08:42:02.391Z,7.20
2022-08-04T08:53:01.013Z,6.00
2022-08-04T08:58:19.235Z,6.30
2022-08-04T09:03:58.191Z,5.70
2022-08-04T09:09:16.783Z,5.20
2022-08-04T09:14:35.813Z,5.30
2022-08-04T09:25:00.252Z,5.60
2022-08-04T09:30:09.668Z,5.70
2022-08-04T09:35:25.347Z,5.60
2022-08-04T09:40:53.248Z,5.70
2022-08-04T09:46:07.675Z,6.10
2022-08-04T09:51:24.285Z,5.30
2022-08-04T09:57:05.779Z,5.20
2022-08-04T10:02:17.160Z,4.50
2022-08-04T10:07:40.302Z,4.60
2022-08-04T10:13:07.400Z,4.30
2022-08-04T10:18:26.564Z,4.10
2022-08-04T10:23:56.532Z,3.40
2022-08-04T10:29:12.137Z,4.20
2022-08-04T10:34:22.753Z,4.20
2022-08-04T10:39:44.000Z,3.70
2022-08-04T10:45:09.571Z,4.30
2022-08-04T10:50:17.640Z,4.90
2022-08-04T10:56:07.196Z,4.60
2022-08-04T11:01:08.464Z,4.50
2022-08-04T11:06:15.797Z,4.50
2022-08-04T11:11:31.405Z,4.50
2022-08-04T11:17:04.656Z,3.80
2022-08-04T11:22:24.992Z,3.90
2022-08-04T11:27:41.779Z,4.20
2022-08-04T11:32:54.716Z,4.30
2022-08-04T11:38:10.508Z,3.60
2022-08-04T11:44:01.143Z,3.80
2022-08-04T11:49:09.819Z,3.60
2022-08-04T11:54:19.065Z,3.90
2022-08-04T11:59:29.059Z,4.20
2022-08-04T12:04:48.178Z,3.90
2022-08-04T12:10:04.705Z,3.50
2022-08-04T12:15:21.793Z,3.40
2022-08-04T12:20:41.224Z,2.90
2022-08-04T12:25:52.047Z,2.70
2022-08-04T12:31:11.168Z,2.00
2022-08-04T12:36:30.640Z,1.80
2022-08-04T12:41:46.935Z,2.00
2022-08-04T12:46:54.812Z,2.10
2022-08-04T12:52:34.672Z,1.70
2022-08-04T12:57:52.317Z,1.70
2022-08-04T13:03:10.198Z,1.30
2022-08-04T13:08:21.417Z,1.50
2022-08-04T13:13:32.520Z,1.30
2022-08-04T13:18:42.837Z,0.90
2022-08-04T13:24:10.340Z,1.00
2022-08-04T13:29:23.874Z,1.30
2022-08-04T13:34:53.542Z,1.10
2022-08-04T13:40:03.459Z,1.00
2022-08-04T13:45:13.114Z,0.90
2022-08-04T13:50:26.336Z,1.00
2022-08-04T13:55:36.148Z,1.40
2022-08-04T14:00:48.801Z,1.10
2022-08-04T14:06:14.725Z,1.10
2022-08-04T14:12:06.801Z,1.30
2022-08-04T14:17:02.418Z,1.70
2022-08-04T14:22:09.475Z,1.90
2022-08-04T14:27:22.677Z,1.70
2022-08-04T14:32:29.830Z,1.80
2022-08-04T14:37:48.640Z,1.90
2022-08-04T14:42:56.629Z,2.00
2022-08-04T14:48:07.336Z,2.00
2022-08-04T14:53:17.371Z,2.40
2022-08-04T14:58:34.168Z,2.10
2022-08-04T15:03:48.001Z,2.30
2022-08-04T15:09:02.194Z,2.50
2022-08-04T15:14:09.452Z,2.00
2022-08-04T15:19:38.171Z,2.30
2022-08-04T15:24:48.262Z,2.30
2022-08-04T15:30:06.309Z,2.80
2022-08-04T15:35:23.273Z,1.90
2022-08-04T15:40:46.838Z,2.20
2022-08-04T15:46:37.366Z,2.20
2022-08-04T15:51:32.153Z,1.90
2022-08-04T15:57:02.603Z,2.20
2022-08-04T16:02:43.144Z,2.20
2022-08-04T16:08:00.395Z,2.30
2022-08-04T16:13:09.424Z,2.60
2022-08-04T16:18:26.492Z,2.50
2022-08-04T16:24:10.160Z,2.50
2022-08-04T16:34:56.419Z,2.80
2022-08-04T16:40:39.587Z,2.90
2022-08-04T16:45:49.616Z,2.40
2022-08-04T16:51:06.706Z,2.80
2022-08-04T16:56:17.439Z,3.20
2022-08-04T17:01:33.246Z,3.10
2022-08-04T17:06:44.404Z,2.40
2022-08-04T17:11:54.089Z,2.50
2022-08-04T17:17:04.392Z,2.80
2022-08-04T17:22:16.052Z,2.80
2022-08-04T17:28:19.475Z,2.60
2022-08-04T17:32:51.637Z,3.00
2022-08-04T17:37:59.001Z,2.90
2022-08-04T17:48:42.032Z,3.50
2022-08-04T17:54:02.429Z,4.00
2022-08-04T17:59:55.708Z,3.60
2022-08-04T18:10:33.034Z,4.40
2022-08-04T18:15:46.299Z,4.40
2022-08-04T18:20:59.528Z,3.70
2022-08-04T18:26:08.751Z,4.60
2022-08-04T18:31:17.779Z,4.80
2022-08-04T18:36:33.029Z,4.70
2022-08-04T18:42:02.596Z,4.50
2022-08-04T18:47:22.482Z,4.80
2022-08-04T18:58:00.923Z,5.40
2022-08-04T19:03:05.521Z,5.40
2022-08-04T19:08:32.936Z,5.10
2022-08-04T19:13:42.716Z,6.30
2022-08-04T19:19:05.621Z,5.70
2022-08-04T19:24:31.896Z,5.60
2022-08-04T19:29:46.229Z,4.90
2022-08-04T19:34:53.250Z,5.60
2022-08-04T19:40:00.649Z,6.00
2022-08-04T19:45:08.833Z,6.20
2022-08-04T19:50:16.052Z,6.60
2022-08-04T19:55:37.614Z,5.90
2022-08-04T20:00:51.335Z,6.60
2022-08-04T20:05:58.961Z,6.20
2022-08-04T20:11:06.789Z,7.60
2022-08-04T20:16:29.658Z,6.40
2022-08-04T20:21:55.438Z,6.30
2022-08-04T20:27:07.615Z,7.20
2022-08-04T20:32:15.895Z,6.90
2022-08-04T20:38:00.291Z,6.90
2022-08-04T20:42:57.181Z,7.10
2022-08-04T20:48:04.697Z,6.80
2022-08-04T20:53:16.855Z,7.00
2022-08-04T20:58:27.655Z,6.50
2022-08-04T21:03:59.849Z,7.20
2022-08-04T21:09:09.557Z,6.50
2022-08-04T21:14:22.739Z,7.50
2022-08-04T21:19:36.759Z,7.50
2022-08-04T21:24:48.658Z,7.00
2022-08-04T21:29:56.865Z,7.10
2022-08-04T21:35:05.335Z,6.80
2022-08-04T21:40:32.792Z,7.30
2022-08-04T21:45:43.646Z,7.40
2022-08-04T21:50:55.293Z,8.20
2022-08-04T21:56:06.132Z,8.00
2022-08-04T22:01:15.071Z,8.00
2022-08-04T22:06:42.191Z,7.90
2022-08-04T22:11:54.778Z,7.70
2022-08-04T22:17:02.808Z,6.50
2022-08-04T22:22:12.683Z,7.10
2022-08-04T22:27:55.386Z,8.30
2022-08-04T22:33:03.315Z,7.20
2022-08-04T22:38:37.058Z,7.00
2022-08-04T22:43:38.644Z,7.40
2022-08-04T22:48:45.754Z,7.70
2022-08-04T22:53:54.382Z,7.60
2022-08-04T22:59:02.161Z,7.00
2022-08-04T23:04:09.775Z,6.90
2022-08-04T23:09:17.396Z,6.30
2022-08-04T23:14:25.047Z,7.10
2022-08-04T23:19:32.470Z,6.70
2022-08-04T23:24:39.612Z,7.30
2022-08-04T23:29:54.490Z,7.30
2022-08-04T23:35:01.803Z,8.20
2022-08-04T23:40:32.741Z,7.20
2022-08-04T23:46:04.387Z,6.60
2022-08-04T23:51:14.318Z,7.10
2022-08-04T23:56:22.365Z,6.80
